createdAt,value
2018-12-09T00:00:22.688Z,69.20
2018-12-09T00:02:51.759Z,71.53
2018-12-09T00:05:20.603Z,70.90
2018-12-09T00:07:49.573Z,71.17
2018-12-09T00:10:18.413Z,73.10
2018-12-09T00:12:47.435Z,69.50
2018-12-09T00:15:16.515Z,70.47
2018-12-09T00:17:45.482Z,71.73
2018-12-09T00:20:14.727Z,73.00
2018-12-09T00:22:43.548Z,73.07
2018-12-09T00:25:12.777Z,72.97
2018-12-09T00:27:41.878Z,72.50
2018-12-09T00:30:11.186Z,69.87
2018-12-09T00:32:40.115Z,68.77
2018-12-09T00:35:09.269Z,68.03
2018-12-09T00:37:38.467Z,71.73
2018-12-09T00:40:07.653Z,67.00
2018-12-09T00:42:43.445Z,66.37
2018-12-09T00:45:08.306Z,66.60
2018-12-09T00:47:38.234Z,66.00
2018-12-09T00:50:07.704Z,65.83
2018-12-09T00:52:37.647Z,65.67
2018-12-09T00:55:07.048Z,65.60
2018-12-09T00:57:36.151Z,64.90
2018-12-09T01:00:05.972Z,65.70
2018-12-09T01:02:35.687Z,64.23
2018-12-09T01:05:05.250Z,62.03
2018-12-09T01:07:34.382Z,62.23
2018-12-09T01:10:03.654Z,63.87
2018-12-09T01:12:32.470Z,61.80
2018-12-09T01:15:01.567Z,61.23
2018-12-09T01:17:30.500Z,59.77
2018-12-09T01:19:59.659Z,63.23
2018-12-09T01:22:28.865Z,64.27
2018-12-09T01:24:57.944Z,65.90
2018-12-09T01:27:26.988Z,63.17
2018-12-09T01:29:55.827Z,67.97
2018-12-09T01:32:24.879Z,68.23
2018-12-09T01:34:53.638Z,67.53
2018-12-09T01:37:23.114Z,67.13
2018-12-09T01:39:52.743Z,66.47
2018-12-09T01:42:22.023Z,67.57
2018-12-09T01:44:51.713Z,66.57
2018-12-09T01:47:20.679Z,65.97
2018-12-09T01:49:50.104Z,67.23
2018-12-09T01:52:19.327Z,67.60
2018-12-09T01:54:48.311Z,65.90
2018-12-09T01:57:17.832Z,81.77
2018-12-09T01:59:47.018Z,65.37
2018-12-09T02:02:16.159Z,62.80
2018-12-09T02:04:45.023Z,67.43
2018-12-09T02:07:14.252Z,67.43
2018-12-09T02:09:43.614Z,69.40
2018-12-09T02:12:12.844Z,69.57
2018-12-09T02:14:42.014Z,65.30
2018-12-09T02:17:11.202Z,66.73
2018-12-09T02:19:40.403Z,68.63
2018-12-09T02:22:10.029Z,69.57
2018-12-09T02:24:38.919Z,63.30
2018-12-09T02:27:07.722Z,63.93
2018-12-09T02:29:37.811Z,64.47
2018-12-09T02:32:07.079Z,66.23
2018-12-09T02:34:36.059Z,67.23
2018-12-09T02:37:05.107Z,63.97
2018-12-09T02:39:34.036Z,60.13
2018-12-09T02:42:03.304Z,61.10
2018-12-09T02:44:32.397Z,64.63
2018-12-09T02:47:01.260Z,60.70
2018-12-09T02:49:30.374Z,61.10
2018-12-09T02:51:59.665Z,60.90
2018-12-09T02:54:28.669Z,57.93
2018-12-09T02:56:57.870Z,62.87
2018-12-09T02:59:26.763Z,61.27
2018-12-09T03:01:55.877Z,62.40
2018-12-09T03:04:25.359Z,62.50
2018-12-09T03:06:54.464Z,61.37
2018-12-09T03:09:23.754Z,60.53
2018-12-09T03:11:52.594Z,59.97
2018-12-09T03:14:21.688Z,59.83
2018-12-09T03:16:50.568Z,62.27
2018-12-09T03:19:20.552Z,70.37
2018-12-09T03:21:49.755Z,65.07
2018-12-09T03:24:19.164Z,62.10
2018-12-09T03:26:48.039Z,62.87
2018-12-09T03:29:16.958Z,61.10
2018-12-09T03:31:46.259Z,61.67
2018-12-09T03:34:15.436Z,62.50
2018-12-09T03:36:44.391Z,62.90
2018-12-09T03:39:13.627Z,61.30
2018-12-09T03:41:42.552Z,66.77
2018-12-09T03:44:11.823Z,63.63
2018-12-09T03:46:41.101Z,62.70
2018-12-09T03:49:10.241Z,63.70
2018-12-09T03:51:39.424Z,62.07
2018-12-09T03:54:08.395Z,66.40
2018-12-09T03:56:37.204Z,61.70
2018-12-09T03:59:06.396Z,66.00
2018-12-09T04:01:35.418Z,64.10
2018-12-09T04:04:04.676Z,63.50
2018-12-09T04:06:33.548Z,69.97
2018-12-09T04:09:02.822Z,62.40
2018-12-09T04:11:31.808Z,59.27
2018-12-09T04:14:00.593Z,58.60
2018-12-09T04:16:29.663Z,58.80
2018-12-09T04:18:58.865Z,62.30
2018-12-09T04:21:28.064Z,62.73
2018-12-09T04:23:57.251Z,61.70
2018-12-09T04:26:26.465Z,60.93
2018-12-09T04:28:55.365Z,65.57
2018-12-09T04:31:24.198Z,57.80
2018-12-09T04:33:53.066Z,63.30
2018-12-09T04:36:22.527Z,59.27
2018-12-09T04:38:51.309Z,59.30
2018-12-09T04:41:20.224Z,61.20
2018-12-09T04:43:49.442Z,63.67
2018-12-09T04:46:18.497Z,61.30
2018-12-09T04:48:47.307Z,64.87
2018-12-09T04:51:16.151Z,61.17
2018-12-09T04:53:45.248Z,63.70
2018-12-09T04:56:14.277Z,64.07
2018-12-09T04:58:57.412Z,60.67
2018-12-09T05:01:26.223Z,58.53
2018-12-09T05:03:55.040Z,60.13
2018-12-09T05:06:24.278Z,65.10
2018-12-09T05:08:53.204Z,60.93
2018-12-09T05:11:22.336Z,57.30
2018-12-09T05:13:51.581Z,54.53
2018-12-09T05:16:21.075Z,54.77
2018-12-09T05:18:50.274Z,57.77
2018-12-09T05:21:19.105Z,73.13
2018-12-09T05:23:48.756Z,64.13
2018-12-09T05:26:17.595Z,60.60
2018-12-09T05:28:46.400Z,58.50
2018-12-09T05:31:15.276Z,64.43
2018-12-09T05:33:44.188Z,60.20
2018-12-09T05:36:13.070Z,58.53
2018-12-09T05:38:42.470Z,55.23
2018-12-09T05:41:11.457Z,62.37
2018-12-09T05:43:40.392Z,63.50
2018-12-09T05:46:09.532Z,68.37
2018-12-09T05:48:38.693Z,73.20
2018-12-09T05:51:07.655Z,69.73
2018-12-09T05:53:36.523Z,65.73
2018-12-09T05:56:05.787Z,63.63
2018-12-09T05:58:34.892Z,65.17
2018-12-09T06:01:04.000Z,65.93
2018-12-09T06:03:33.174Z,67.30
2018-12-09T06:06:02.982Z,65.97
2018-12-09T06:08:32.552Z,66.30
2018-12-09T06:11:01.359Z,63.40
2018-12-09T06:13:31.040Z,64.43
2018-12-09T06:16:00.191Z,63.43
2018-12-09T06:18:29.057Z,63.80
2018-12-09T06:20:57.875Z,64.00
2018-12-09T06:23:27.518Z,66.07
2018-12-09T06:25:56.335Z,67.83
2018-12-09T06:28:25.558Z,68.17
2018-12-09T06:30:54.394Z,70.30
2018-12-09T06:33:23.843Z,73.33
2018-12-09T06:36:00.097Z,72.43
2018-12-09T06:38:29.323Z,69.67
2018-12-09T06:40:58.176Z,71.20
2018-12-09T06:43:27.279Z,74.93
2018-12-09T06:45:56.816Z,73.97
2018-12-09T06:48:25.916Z,74.23
2018-12-09T06:50:54.813Z,75.10
2018-12-09T06:53:23.911Z,80.27
2018-12-09T06:55:52.707Z,77.03
2018-12-09T06:58:21.974Z,76.63
2018-12-09T07:00:51.080Z,77.63
2018-12-09T07:03:20.172Z,75.27
2018-12-09T07:05:49.216Z,72.77
2018-12-09T07:08:18.477Z,74.40
2018-12-09T07:10:48.115Z,66.53
2018-12-09T07:13:17.290Z,56.07
2018-12-09T07:15:47.005Z,52.10
2018-12-09T07:18:17.119Z,51.90
2018-12-09T07:20:45.972Z,55.13
2018-12-09T07:23:15.478Z,40.50
2018-12-09T07:25:45.016Z,37.23
2018-12-09T07:28:14.304Z,36.97
2018-12-09T07:30:44.644Z,38.97
2018-12-09T07:33:13.813Z,31.43
2018-12-09T07:35:43.128Z,31.80
2018-12-09T07:38:12.227Z,29.60
2018-12-09T07:40:41.115Z,27.40
2018-12-09T07:43:10.005Z,27.00
2018-12-09T07:45:39.206Z,21.03
2018-12-09T07:48:08.108Z,25.57
2018-12-09T07:50:37.304Z,24.17
2018-12-09T07:53:06.714Z,25.73
2018-12-09T07:55:35.575Z,23.20
2018-12-09T07:58:05.110Z,25.50
2018-12-09T08:00:34.299Z,37.47
2018-12-09T08:03:03.122Z,21.80
2018-12-09T08:05:32.180Z,21.40
2018-12-09T08:08:00.999Z,19.77
2018-12-09T08:10:29.799Z,18.60
2018-12-09T08:12:58.954Z,17.70
2018-12-09T08:15:27.754Z,17.93
2018-12-09T08:17:56.773Z,17.60
2018-12-09T08:20:26.102Z,17.43
2018-12-09T08:22:55.337Z,15.27
2018-12-09T08:25:24.456Z,14.20
2018-12-09T08:27:53.528Z,15.43
2018-12-09T08:30:22.631Z,16.73
2018-12-09T08:32:51.707Z,15.70
2018-12-09T08:35:20.828Z,15.03
2018-12-09T08:37:49.613Z,13.10
2018-12-09T08:40:18.655Z,14.63
2018-12-09T08:42:47.798Z,16.17
2018-12-09T08:45:16.894Z,19.10
2018-12-09T08:47:45.671Z,15.97
2018-12-09T08:50:14.542Z,15.83
2018-12-09T08:52:43.352Z,15.13
2018-12-09T08:55:12.286Z,13.90
2018-12-09T08:57:41.281Z,10.37
2018-12-09T09:00:10.086Z,9.80
2018-12-09T09:02:39.240Z,10.07
2018-12-09T09:05:08.443Z,15.40
2018-12-09T09:07:37.464Z,15.23
2018-12-09T09:10:07.137Z,13.03
2018-12-09T09:12:36.086Z,14.70
2018-12-09T09:15:05.947Z,25.80
2018-12-09T09:17:35.039Z,15.17
2018-12-09T09:20:04.561Z,12.73
2018-12-09T09:22:33.762Z,18.57
2018-12-09T09:25:02.963Z,14.30
2018-12-09T09:27:31.834Z,11.57
2018-12-09T09:30:01.154Z,13.23
2018-12-09T09:32:30.344Z,13.70
2018-12-09T09:34:59.851Z,12.00
2018-12-09T09:37:28.714Z,10.53
2018-12-09T09:39:58.324Z,11.93
2018-12-09T09:42:27.540Z,10.60
2018-12-09T09:44:57.342Z,11.07
2018-12-09T09:47:26.136Z,12.27
2018-12-09T09:50:01.851Z,10.87
2018-12-09T09:52:31.188Z,10.67
2018-12-09T09:55:00.436Z,11.40
2018-12-09T09:57:29.500Z,12.33
2018-12-09T09:59:58.689Z,12.00
2018-12-09T10:02:27.476Z,11.63
2018-12-09T10:04:56.439Z,11.17
2018-12-09T10:07:25.694Z,16.07
2018-12-09T10:09:54.613Z,11.63
2018-12-09T10:12:23.859Z,11.77
2018-12-09T10:14:52.796Z,16.33
2018-12-09T10:17:21.961Z,11.70
2018-12-09T10:19:51.089Z,12.83
2018-12-09T10:22:20.312Z,13.10
2018-12-09T10:24:49.381Z,13.43
2018-12-09T10:27:18.629Z,12.83
2018-12-09T10:29:47.572Z,14.40
2018-12-09T10:32:16.624Z,15.03
2018-12-09T10:34:46.275Z,14.10
2018-12-09T10:37:15.090Z,15.10
2018-12-09T10:39:45.079Z,14.37
2018-12-09T10:42:14.693Z,15.07
2018-12-09T10:44:43.851Z,11.03
2018-12-09T10:47:13.378Z,10.17
2018-12-09T10:49:42.258Z,11.00
2018-12-09T10:52:11.908Z,11.07
2018-12-09T10:54:40.946Z,10.50
2018-12-09T10:57:16.469Z,9.93
2018-12-09T10:59:45.561Z,10.37
2018-12-09T11:02:19.860Z,11.30
2018-12-09T11:04:49.205Z,14.77
2018-12-09T11:07:18.401Z,12.57
2018-12-09T11:09:47.649Z,12.93
2018-12-09T11:12:16.493Z,13.83
2018-12-09T11:14:45.601Z,15.13
2018-12-09T11:17:14.702Z,11.57
2018-12-09T11:19:43.799Z,9.40
2018-12-09T11:22:12.922Z,10.37
2018-12-09T11:24:42.190Z,12.37
2018-12-09T11:27:11.286Z,11.17
2018-12-09T11:29:40.167Z,10.10
2018-12-09T11:32:09.447Z,11.37
2018-12-09T11:34:38.371Z,12.27
2018-12-09T11:37:07.699Z,13.27
2018-12-09T11:39:37.181Z,9.93
2018-12-09T11:42:06.258Z,10.03
2018-12-09T11:44:35.583Z,9.83
2018-12-09T11:47:04.526Z,9.20
2018-12-09T11:49:33.452Z,9.37
2018-12-09T11:52:02.797Z,9.23
2018-12-09T11:54:32.034Z,9.10
2018-12-09T11:57:01.190Z,11.17
2018-12-09T11:59:30.045Z,9.43
2018-12-09T12:01:59.575Z,9.90
2018-12-09T12:04:28.776Z,9.90
2018-12-09T12:06:57.791Z,11.37
2018-12-09T12:09:26.887Z,11.83
2018-12-09T12:11:55.983Z,10.90
2018-12-09T12:14:25.131Z,10.83
2018-12-09T12:16:54.193Z,12.13
2018-12-09T12:19:23.320Z,10.93
2018-12-09T12:21:52.541Z,10.73
2018-12-09T12:24:21.570Z,11.90
2018-12-09T12:26:50.613Z,12.27
2018-12-09T12:29:19.451Z,13.70
2018-12-09T12:31:48.344Z,9.30
2018-12-09T12:34:17.487Z,9.50
2018-12-09T12:36:46.427Z,8.47
2018-12-09T12:39:15.296Z,9.53
2018-12-09T12:41:44.067Z,11.63
2018-12-09T12:44:13.198Z,11.97
2018-12-09T12:46:42.087Z,11.10
2018-12-09T12:49:11.241Z,10.80
2018-12-09T12:51:40.507Z,10.63
2018-12-09T12:54:09.669Z,12.67
2018-12-09T12:56:38.483Z,10.87
2018-12-09T12:59:08.039Z,12.47
2018-12-09T13:01:37.139Z,12.90
2018-12-09T13:04:07.043Z,11.47
2018-12-09T13:06:36.558Z,12.50
2018-12-09T13:09:07.845Z,10.03
2018-12-09T13:11:36.707Z,10.83
2018-12-09T13:14:05.998Z,12.50
2018-12-09T13:16:35.024Z,13.00
2018-12-09T13:19:04.068Z,13.40
2018-12-09T13:21:33.166Z,12.60
2018-12-09T13:24:02.264Z,16.33
2018-12-09T13:26:31.453Z,13.73
2018-12-09T13:29:00.612Z,15.93
2018-12-09T13:31:29.747Z,17.57
2018-12-09T13:33:58.618Z,14.17
2018-12-09T13:36:27.438Z,15.67
2018-12-09T13:38:57.013Z,12.93
2018-12-09T13:41:26.134Z,15.33
2018-12-09T13:43:55.213Z,12.67
2018-12-09T13:46:24.353Z,11.80
2018-12-09T13:48:53.325Z,10.83
2018-12-09T13:51:22.432Z,8.53
2018-12-09T13:53:51.527Z,9.17
2018-12-09T13:56:21.028Z,8.43
2018-12-09T13:58:49.879Z,8.03
2018-12-09T14:01:19.039Z,8.60
2018-12-09T14:03:48.111Z,8.60
2018-12-09T14:06:17.099Z,8.87
2018-12-09T14:08:46.300Z,9.00
2018-12-09T14:11:16.523Z,9.63
2018-12-09T14:13:45.633Z,9.03
2018-12-09T14:16:14.597Z,9.17
2018-12-09T14:18:43.911Z,9.60
2018-12-09T14:21:14.336Z,9.70
2018-12-09T14:23:43.573Z,9.23
2018-12-09T14:26:12.993Z,9.73
2018-12-09T14:28:41.929Z,10.40
2018-12-09T14:31:10.788Z,10.37
2018-12-09T14:33:40.024Z,10.30
2018-12-09T14:36:09.225Z,11.53
2018-12-09T14:38:38.066Z,11.13
2018-12-09T14:41:06.875Z,9.67
2018-12-09T14:43:35.915Z,9.67
2018-12-09T14:46:05.034Z,10.47
2018-12-09T14:48:34.082Z,11.37
2018-12-09T14:51:02.943Z,10.67
2018-12-09T14:53:32.150Z,11.23
2018-12-09T14:56:01.106Z,9.83
2018-12-09T14:58:30.268Z,12.67
2018-12-09T15:00:59.463Z,10.43
2018-12-09T15:03:28.315Z,18.60
2018-12-09T15:05:57.156Z,18.43
2018-12-09T15:08:26.034Z,21.60
2018-12-09T15:10:55.581Z,25.23
2018-12-09T15:13:24.522Z,24.80
2018-12-09T15:15:54.659Z,55.60
2018-12-09T15:18:23.854Z,52.27
2018-12-09T15:20:52.952Z,49.83
2018-12-09T15:23:21.798Z,39.07
2018-12-09T15:25:50.939Z,29.47
2018-12-09T15:28:20.349Z,28.80
2018-12-09T15:30:49.613Z,35.67
2018-12-09T15:33:18.429Z,38.10
2018-12-09T15:35:47.446Z,38.40
2018-12-09T15:38:16.614Z,24.23
2018-12-09T15:40:45.668Z,25.17
2018-12-09T15:43:15.333Z,32.63
2018-12-09T15:45:44.646Z,24.07
2018-12-09T15:48:13.466Z,37.43
2018-12-09T15:50:42.487Z,82.20
2018-12-09T15:53:11.651Z,126.77
2018-12-09T15:55:41.264Z,70.40
2018-12-09T15:58:11.034Z,140.50
2018-12-09T16:00:46.208Z,58.83
2018-12-09T16:03:15.451Z,68.90
2018-12-09T16:05:44.719Z,58.07
2018-12-09T16:08:14.121Z,42.30
2018-12-09T16:10:43.531Z,39.93
2018-12-09T16:13:12.664Z,39.50
2018-12-09T16:15:41.639Z,26.50
2018-12-09T16:18:10.747Z,26.90
2018-12-09T16:20:39.947Z,26.10
2018-12-09T16:23:08.980Z,33.67
2018-12-09T16:25:38.428Z,43.10
2018-12-09T16:28:07.232Z,49.17
2018-12-09T16:30:36.282Z,41.43
2018-12-09T16:33:05.414Z,40.27
2018-12-09T16:35:34.633Z,39.10
2018-12-09T16:38:03.820Z,45.80
2018-12-09T16:40:32.879Z,53.53
2018-12-09T16:43:02.108Z,52.30
2018-12-09T16:45:31.953Z,56.37
2018-12-09T16:48:01.203Z,77.83
2018-12-09T16:50:30.424Z,75.00
2018-12-09T16:52:59.647Z,51.63
2018-12-09T16:55:29.060Z,52.57
2018-12-09T16:57:58.273Z,51.00
2018-12-09T17:00:27.431Z,47.37
2018-12-09T17:02:56.222Z,70.23
2018-12-09T17:05:25.588Z,52.97
2018-12-09T17:07:54.659Z,51.97
2018-12-09T17:10:23.925Z,60.00
2018-12-09T17:12:52.721Z,47.37
2018-12-09T17:15:22.071Z,42.77
2018-12-09T17:17:51.562Z,40.07
2018-12-09T17:20:20.859Z,33.77
2018-12-09T17:22:51.002Z,24.33
2018-12-09T17:28:01.333Z,22.60
2018-12-09T17:30:30.450Z,21.27
2018-12-09T17:33:00.673Z,22.00
2018-12-09T17:35:29.988Z,21.70
2018-12-09T17:37:59.470Z,26.23
2018-12-09T17:40:28.775Z,28.20
2018-12-09T17:42:59.122Z,29.10
2018-12-09T17:45:28.432Z,32.30
2018-12-09T17:47:57.668Z,31.53
2018-12-09T17:50:26.942Z,25.30
2018-12-09T17:52:56.026Z,25.73
2018-12-09T17:55:25.004Z,22.60
2018-12-09T17:57:54.421Z,21.83
2018-12-09T18:00:23.326Z,20.23
2018-12-09T18:02:52.568Z,21.50
2018-12-09T18:05:21.602Z,22.97
2018-12-09T18:07:50.543Z,23.33
2018-12-09T18:10:19.422Z,24.97
2018-12-09T18:12:48.685Z,22.47
2018-12-09T18:15:21.198Z,21.50
2018-12-09T18:17:50.601Z,22.50
2018-12-09T18:20:19.845Z,25.13
2018-12-09T18:22:49.324Z,24.33
2018-12-09T18:25:18.561Z,28.60
2018-12-09T18:27:47.780Z,28.07
2018-12-09T18:30:16.747Z,24.80
2018-12-09T18:32:46.667Z,25.13
2018-12-09T18:35:15.821Z,25.70
2018-12-09T18:37:46.523Z,22.43
2018-12-09T18:40:16.033Z,22.70
2018-12-09T18:42:45.090Z,19.60
2018-12-09T18:45:14.365Z,18.90
2018-12-09T18:47:43.574Z,20.73
2018-12-09T18:50:12.879Z,23.30
2018-12-09T18:52:42.077Z,24.17
2018-12-09T18:55:11.244Z,22.90
2018-12-09T18:57:40.342Z,25.70
2018-12-09T19:00:09.788Z,23.77
2018-12-09T19:02:39.083Z,24.73
2018-12-09T19:05:08.383Z,24.50
2018-12-09T19:07:38.715Z,23.80
2018-12-09T19:10:09.247Z,21.23
2018-12-09T19:12:38.545Z,23.50
2018-12-09T19:15:07.690Z,26.77
2018-12-09T19:17:37.036Z,27.63
2018-12-09T19:20:06.376Z,25.70
2018-12-09T19:22:35.325Z,25.53
2018-12-09T19:25:04.640Z,23.50
2018-12-09T19:27:33.927Z,24.23
2018-12-09T19:30:03.116Z,24.07
2018-12-09T19:32:31.958Z,25.67
2018-12-09T19:35:00.824Z,27.07
2018-12-09T19:37:30.091Z,23.77
2018-12-09T19:39:58.860Z,23.10
2018-12-09T19:42:27.903Z,22.13
2018-12-09T19:44:57.055Z,20.73
2018-12-09T19:47:26.166Z,19.60
2018-12-09T19:49:55.821Z,19.70
2018-12-09T19:52:25.010Z,23.73
2018-12-09T19:54:54.600Z,20.90
2018-12-09T19:57:23.897Z,19.00
2018-12-09T19:59:53.113Z,17.33
2018-12-09T20:02:22.915Z,18.30
2018-12-09T20:04:51.909Z,17.03
2018-12-09T20:07:21.368Z,18.03
2018-12-09T20:09:50.532Z,17.50
2018-12-09T20:12:19.669Z,14.03
2018-12-09T20:14:48.495Z,12.10
2018-12-09T20:17:17.334Z,13.37
2018-12-09T20:19:46.440Z,13.70
2018-12-09T20:22:15.373Z,14.60
2018-12-09T20:24:44.725Z,14.10
2018-12-09T20:27:13.634Z,15.50
2018-12-09T20:29:42.463Z,16.93
2018-12-09T20:32:11.482Z,17.37
2018-12-09T20:34:40.397Z,17.00
2018-12-09T20:37:09.310Z,17.53
2018-12-09T20:39:38.270Z,16.83
2018-12-09T20:42:07.307Z,17.07
2018-12-09T20:44:36.352Z,19.93
2018-12-09T20:47:05.608Z,17.73
2018-12-09T20:49:34.671Z,18.07
2018-12-09T20:52:03.776Z,16.67
2018-12-09T20:54:32.800Z,17.70
2018-12-09T20:57:02.270Z,17.43
2018-12-09T20:59:31.158Z,18.03
2018-12-09T21:02:00.300Z,17.87
2018-12-09T21:04:30.040Z,17.30
2018-12-09T21:06:59.003Z,17.07
2018-12-09T21:09:28.982Z,18.03
2018-12-09T21:11:58.117Z,18.97
2018-12-09T21:14:27.381Z,17.53
2018-12-09T21:16:56.325Z,18.60
2018-12-09T21:19:25.290Z,18.77
2018-12-09T21:21:54.206Z,19.13
2018-12-09T21:24:25.931Z,18.63
2018-12-09T21:26:54.691Z,19.60
2018-12-09T21:29:23.731Z,19.17
2018-12-09T21:31:53.073Z,21.43
2018-12-09T21:34:22.104Z,25.67
2018-12-09T21:36:51.271Z,37.10
2018-12-09T21:39:20.300Z,25.70
2018-12-09T21:41:49.462Z,24.37
2018-12-09T21:44:18.552Z,25.13
2018-12-09T21:46:47.677Z,24.63
2018-12-09T21:49:16.801Z,23.83
2018-12-09T21:51:45.794Z,22.80
2018-12-09T21:54:15.057Z,23.90
2018-12-09T21:56:44.455Z,23.37
2018-12-09T21:59:13.372Z,21.07
2018-12-09T22:01:42.554Z,22.50
2018-12-09T22:04:11.685Z,21.23
2018-12-09T22:06:40.577Z,23.63
2018-12-09T22:09:09.758Z,24.70
2018-12-09T22:11:39.041Z,24.40
2018-12-09T22:14:08.553Z,26.20
2018-12-09T22:16:38.044Z,24.73
2018-12-09T22:19:07.348Z,24.53
2018-12-09T22:21:37.051Z,25.90
2018-12-09T22:24:06.379Z,26.30
2018-12-09T22:26:35.479Z,24.00
2018-12-09T22:29:04.399Z,24.80
2018-12-09T22:31:33.646Z,21.70
2018-12-09T22:34:02.437Z,22.17
2018-12-09T22:36:31.309Z,21.17
2018-12-09T22:39:00.501Z,22.13
2018-12-09T22:41:29.507Z,20.07
2018-12-09T22:43:58.758Z,21.03
2018-12-09T22:46:27.510Z,21.43
2018-12-09T22:48:57.079Z,22.30
2018-12-09T22:51:26.316Z,23.13
2018-12-09T22:53:55.263Z,21.53
2018-12-09T22:56:24.095Z,22.50
2018-12-09T22:58:53.292Z,21.53
2018-12-09T23:01:23.008Z,22.03
2018-12-09T23:03:52.199Z,22.83
2018-12-09T23:06:21.399Z,23.60
2018-12-09T23:08:50.590Z,25.47
2018-12-09T23:11:19.719Z,22.63
2018-12-09T23:13:48.803Z,24.23
2018-12-09T23:16:17.639Z,20.97
2018-12-09T23:18:46.672Z,19.70
2018-12-09T23:21:15.795Z,20.10
2018-12-09T23:23:44.835Z,19.53
2018-12-09T23:26:13.812Z,18.33
2018-12-09T23:28:43.263Z,17.40
2018-12-09T23:31:12.094Z,18.57
2018-12-09T23:33:41.063Z,16.33
2018-12-09T23:36:10.243Z,17.00
2018-12-09T23:38:39.176Z,15.70
2018-12-09T23:41:08.344Z,16.13
2018-12-09T23:43:37.488Z,16.97
2018-12-09T23:46:06.618Z,17.27
2018-12-09T23:48:35.644Z,17.00
2018-12-09T23:51:04.937Z,18.50
2018-12-09T23:53:33.971Z,19.23
2018-12-09T23:56:03.007Z,22.70
2018-12-09T23:58:32.034Z,21.80
